Time;durP1;ratioP1;P1;durP2;ratioP2;P2;SDS_P1;SDS_P2;PMS_P1;PMS_P2;Temp;Humidity;BMP_temperature;BMP_pressure;BME280_temperature;BME280_humidity;BME280_pressure;Samples;Min_cycle;Max_cycle;Signal;HPM_P1;HPM_P2
2022/06/24 00:02:12;;;;;;;7.00;3.10;;;;;;;19.46;47.30;99008.14;232517;1222;138834;-60
2022/06/24 00:07:16;;;;;;;4.40;3.20;;;;;;;19.41;47.48;99007.09;232726;1223;139379;-60
2022/06/24 00:12:24;;;;;;;6.70;3.50;;;;;;;19.40;47.62;99011.77;232785;1223;138528;-60
2022/06/24 00:17:29;;;;;;;7.10;3.70;;;;;;;19.34;47.66;99004.08;232514;1223;139010;-59
2022/06/24 00:22:44;;;;;;;9.10;3.70;;;;;;;19.30;47.63;99013.92;232411;1223;138548;-60
2022/06/24 00:28:05;;;;;;;8.90;3.70;;;;;;;19.22;47.78;99014.22;233003;1222;139419;-58
2022/06/24 00:33:08;;;;;;;9.80;3.50;;;;;;;19.17;47.98;99021.58;232699;1222;139811;-56
2022/06/24 00:38:25;;;;;;;6.50;3.60;;;;;;;19.12;48.13;99017.92;232533;1223;139498;-56
2022/06/24 00:43:41;;;;;;;9.80;3.90;;;;;;;19.07;48.42;99020.02;232374;1224;139922;-60
2022/06/24 00:48:58;;;;;;;8.40;3.90;;;;;;;19.01;48.56;99020.48;232630;1224;138783;-58
2022/06/24 00:54:14;;;;;;;8.50;3.90;;;;;;;18.94;48.70;99010.28;232510;1223;139456;-54
2022/06/24 00:59:17;;;;;;;9.20;4.00;;;;;;;18.87;48.72;99008.98;232430;1222;139273;-57
2022/06/24 01:04:20;;;;;;;5.80;4.00;;;;;;;18.84;48.85;99006.64;232786;1224;139425;-59
2022/06/24 01:09:23;;;;;;;8.50;4.00;;;;;;;18.80;48.89;99009.35;232572;1224;138768;-56
2022/06/24 01:14:26;;;;;;;10.10;5.30;;;;;;;18.75;49.27;99008.38;232773;1223;139227;-58
2022/06/24 01:19:29;;;;;;;16.60;7.10;;;;;;;18.68;49.41;98999.88;232531;1224;139048;-57
2022/06/24 01:24:32;;;;;;;17.00;5.20;;;;;;;18.63;49.30;98991.56;232507;1222;138999;-59
2022/06/24 01:29:35;;;;;;;13.00;4.60;;;;;;;18.54;49.47;98994.38;232487;1223;139489;-58
2022/06/24 01:34:38;;;;;;;8.90;4.40;;;;;;;18.47;49.61;98989.70;232381;1224;139245;-58
2022/06/24 01:39:41;;;;;;;9.70;4.10;;;;;;;18.37;49.82;98985.91;232615;1223;138587;-57
2022/06/24 01:44:44;;;;;;;13.10;4.40;;;;;;;18.26;50.02;98986.48;232385;1224;139086;-58
2022/06/24 01:49:47;;;;;;;10.70;4.30;;;;;;;18.17;50.32;98991.91;232431;1224;141116;-58
2022/06/24 01:54:50;;;;;;;8.70;4.10;;;;;;;18.08;50.03;98987.24;232561;1223;139942;-59
2022/06/24 01:59:53;;;;;;;7.90;3.80;;;;;;;18.01;50.27;98986.13;232942;1222;138703;-58
2022/06/24 02:04:56;;;;;;;9.70;4.00;;;;;;;17.97;50.33;98992.62;232748;1223;139079;-58
2022/06/24 02:15:21;;;;;;;8.70;3.70;;;;;;;17.86;50.57;98989.27;232613;1223;140985;-58
2022/06/24 02:20:24;;;;;;;7.10;4.30;;;;;;;17.80;50.71;98989.48;232845;1223;139651;-58
2022/06/24 02:25:27;;;;;;;10.40;4.00;;;;;;;17.77;50.87;98990.73;232881;1224;138978;-57
2022/06/24 02:30:30;;;;;;;10.50;4.40;;;;;;;17.68;50.71;98989.63;232676;1223;139486;-57
2022/06/24 02:35:33;;;;;;;10.20;4.40;;;;;;;17.65;51.13;98992.10;232507;1223;140053;-58
2022/06/24 02:40:45;;;;;;;12.30;4.30;;;;;;;17.60;50.92;98995.65;232786;1223;139427;-59
2022/06/24 02:45:53;;;;;;;9.40;4.30;;;;;;;17.52;51.34;98990.78;232941;1223;138760;-57
2022/06/24 02:50:58;;;;;;;8.20;3.70;;;;;;;17.46;51.32;98991.00;232592;1224;139091;-58
2022/06/24 02:56:04;;;;;;;5.60;3.60;;;;;;;17.42;51.21;98992.09;232962;1223;139015;-62
2022/06/24 03:01:08;;;;;;;9.00;4.20;;;;;;;17.36;51.34;98996.88;232735;1222;139093;-59
2022/06/24 03:06:11;;;;;;;6.10;3.70;;;;;;;17.30;51.71;98999.27;232675;1223;139059;-60
2022/06/24 03:11:14;;;;;;;13.80;3.70;;;;;;;17.23;51.88;99000.96;232675;1223;138600;-68
2022/06/24 03:16:17;;;;;;;11.90;4.70;;;;;;;17.18;52.09;99002.34;232713;1224;139088;-64
2022/06/24 03:21:20;;;;;;;13.00;4.30;;;;;;;17.11;52.02;99000.09;232692;1223;138770;-64
2022/06/24 03:26:23;;;;;;;7.90;4.50;;;;;;;17.08;52.23;98997.27;232751;1223;139565;-57
2022/06/24 03:31:26;;;;;;;7.60;4.00;;;;;;;17.07;52.49;99000.39;232605;1224;138640;-61
2022/06/24 03:36:29;;;;;;;8.90;4.00;;;;;;;17.16;52.39;99010.51;232592;1223;139091;-59
2022/06/24 03:41:33;;;;;;;7.10;4.10;;;;;;;17.20;52.58;99015.56;232737;1223;138754;-57
2022/06/24 03:46:36;;;;;;;8.20;4.10;;;;;;;17.22;52.65;99008.17;232683;1223;139544;-58
2022/06/24 03:51:39;;;;;;;7.70;3.90;;;;;;;17.29;52.44;99007.06;232779;1223;140057;-61
2022/06/24 03:56:42;;;;;;;6.80;3.70;;;;;;;17.42;52.58;99007.12;232749;1223;138950;-61
2022/06/24 04:01:47;;;;;;;7.60;4.20;;;;;;;17.55;52.52;99010.38;232649;1223;139515;-58
2022/06/24 04:06:50;;;;;;;6.30;4.00;;;;;;;17.74;52.77;99018.27;232602;1222;138683;-60
2022/06/24 04:11:53;;;;;;;5.30;3.70;;;;;;;17.88;52.78;99029.86;232672;1223;139106;-59
2022/06/24 04:16:56;;;;;;;9.10;4.10;;;;;;;17.99;52.51;99030.77;232710;1224;139590;-60
2022/06/24 04:21:59;;;;;;;6.00;4.00;;;;;;;18.13;52.39;99029.65;232732;1223;138767;-60
2022/06/24 04:27:02;;;;;;;7.20;4.30;;;;;;;18.29;52.31;99035.17;232527;1223;139142;-59
2022/06/24 04:32:05;;;;;;;9.00;4.40;;;;;;;18.44;52.55;99027.14;232768;1223;138925;-61
2022/06/24 04:37:08;;;;;;;9.90;4.40;;;;;;;18.63;52.49;99029.28;232677;1223;138801;-62
2022/06/24 04:42:11;;;;;;;10.70;4.60;;;;;;;18.78;52.42;99027.39;232673;1222;141578;-61
2022/06/24 04:47:14;;;;;;;9.80;4.60;;;;;;;18.89;52.16;99022.83;232652;1224;139230;-63
2022/06/24 04:52:17;;;;;;;6.20;4.00;;;;;;;19.06;52.15;99023.51;232715;1223;139701;-61
2022/06/24 04:57:20;;;;;;;7.00;3.90;;;;;;;19.26;52.03;99019.41;232653;1223;138636;-62
2022/06/24 05:02:23;;;;;;;7.90;4.60;;;;;;;19.39;51.96;99014.49;232858;1223;138709;-62
2022/06/24 05:07:26;;;;;;;8.80;4.10;;;;;;;19.56;51.93;99019.52;232800;1223;138513;-60
2022/06/24 05:12:29;;;;;;;59.50;46.80;;;;;;;19.81;52.30;99023.02;232627;1222;138574;-60
2022/06/24 05:17:33;;;;;;;23.10;14.10;;;;;;;20.18;52.57;99016.30;232469;1223;142362;-58
2022/06/24 05:22:38;;;;;;;93.70;72.20;;;;;;;20.40;52.13;99012.92;232559;1223;140673;-59
2022/06/24 05:27:42;;;;;;;69.10;58.00;;;;;;;20.62;51.79;99017.80;232627;1223;139842;-59
2022/06/24 05:32:45;;;;;;;31.90;16.00;;;;;;;20.82;51.46;99018.34;232705;1223;139029;-60
2022/06/24 05:37:48;;;;;;;15.30;11.70;;;;;;;21.02;51.74;99020.05;232745;1222;139881;-59
2022/06/24 05:42:52;;;;;;;15.40;10.00;;;;;;;21.40;51.69;99016.77;232601;1223;139369;-56
2022/06/24 05:47:55;;;;;;;11.40;7.70;;;;;;;21.68;51.27;99013.54;232699;1222;139664;-58
2022/06/24 05:58:19;;;;;;;36.70;25.10;;;;;;;22.12;50.64;99017.59;232766;1222;138500;-61
2022/06/24 06:03:23;;;;;;;27.30;20.10;;;;;;;22.24;50.04;99014.98;232584;1222;139183;-60
2022/06/24 06:08:26;;;;;;;17.40;11.60;;;;;;;22.27;49.71;99011.66;232546;1223;138641;-60
2022/06/24 06:13:29;;;;;;;9.90;5.30;;;;;;;22.28;49.52;99008.65;232584;1221;139171;-59
2022/06/24 06:18:33;;;;;;;12.30;10.50;;;;;;;22.33;49.38;99011.09;232726;1223;138834;-63
2022/06/24 06:23:38;;;;;;;16.20;10.70;;;;;;;22.41;49.44;99006.98;232547;1223;138910;-62
2022/06/24 06:28:41;;;;;;;11.80;5.40;;;;;;;22.55;49.11;99012.77;232594;1223;139178;-60
2022/06/24 06:33:44;;;;;;;28.10;21.20;;;;;;;22.59;48.57;99011.31;232596;1222;138949;-58
2022/06/24 06:38:47;;;;;;;7.70;5.00;;;;;;;22.64;48.12;99021.52;232480;1223;138764;-64
2022/06/24 06:43:50;;;;;;;16.30;8.70;;;;;;;22.69;47.95;99026.66;232710;1223;139202;-64
2022/06/24 06:49:00;;;;;;;8.10;5.20;;;;;;;22.70;47.55;99016.73;232633;1223;138952;-61
2022/06/24 06:54:03;;;;;;;7.70;4.50;;;;;;;22.76;47.40;99011.95;232520;1223;139791;-62
2022/06/24 06:59:06;;;;;;;12.60;4.10;;;;;;;22.81;47.21;99016.48;232425;1223;138946;-62
2022/06/24 07:04:09;;;;;;;52.30;42.80;;;;;;;22.89;46.86;99017.04;232744;1223;139749;-59
2022/06/24 07:09:12;;;;;;;11.00;6.10;;;;;;;22.98;46.62;99011.79;232569;1224;138910;-61
2022/06/24 07:14:15;;;;;;;6.80;4.10;;;;;;;23.09;46.49;99010.08;232807;1223;140935;-62
2022/06/24 07:19:18;;;;;;;11.70;4.10;;;;;;;23.16;46.07;99000.98;232759;1223;138642;-61
2022/06/24 07:24:21;;;;;;;8.70;3.90;;;;;;;23.25;45.75;99005.56;232537;1223;139920;-63
2022/06/24 07:29:24;;;;;;;6.60;3.20;;;;;;;23.25;45.69;98999.24;232548;1223;138954;-61
2022/06/24 07:34:30;;;;;;;8.10;3.80;;;;;;;23.34;45.62;99000.52;232754;1223;139285;-59
2022/06/24 07:39:33;;;;;;;6.00;2.80;;;;;;;23.44;45.46;98994.27;232618;1223;139455;-58
2022/06/24 07:44:40;;;;;;;7.20;3.70;;;;;;;23.56;45.17;98994.59;232441;1223;139562;-58
2022/06/24 07:49:43;;;;;;;11.90;7.60;;;;;;;23.59;44.87;98991.24;232335;1223;139118;-56
2022/06/24 07:54:46;;;;;;;7.50;2.80;;;;;;;23.72;44.43;98989.30;232603;1222;139507;-54
2022/06/24 07:59:49;;;;;;;2.70;2.30;;;;;;;23.84;43.78;98989.00;232862;1222;140218;-57
2022/06/24 08:04:54;;;;;;;4.10;2.40;;;;;;;23.92;43.50;98973.92;232509;1223;138956;-59
2022/06/24 08:09:57;;;;;;;12.20;6.80;;;;;;;23.99;43.33;98964.67;232649;1222;138586;-56
2022/06/24 08:15:00;;;;;;;9.10;2.60;;;;;;;24.14;43.08;98954.92;232668;1223;138838;-53
2022/06/24 08:20:04;;;;;;;12.00;5.80;;;;;;;24.19;42.58;98956.91;232869;1223;138622;-53
2022/06/24 08:25:07;;;;;;;3.20;2.00;;;;;;;24.26;42.03;98957.30;232455;1223;139539;-58
2022/06/24 08:30:24;;;;;;;12.30;1.90;;;;;;;24.38;41.73;98957.36;232485;1221;138925;-56
2022/06/24 08:35:27;;;;;;;5.40;2.10;;;;;;;24.45;41.55;98942.77;232733;1222;139445;-56
2022/06/24 08:40:32;;;;;;;7.80;2.10;;;;;;;24.49;41.34;98936.71;232968;1222;138598;-55
2022/06/24 08:45:35;;;;;;;4.80;1.70;;;;;;;24.61;41.19;98941.63;232709;1223;139038;-59
2022/06/24 08:50:38;;;;;;;9.70;4.90;;;;;;;24.63;40.92;98930.11;232327;1222;140553;-57
2022/06/24 08:55:44;;;;;;;7.60;1.90;;;;;;;24.74;40.79;98930.24;232706;1220;138935;-61
2022/06/24 09:00:47;;;;;;;2.80;2.00;;;;;;;24.86;40.51;98928.73;232604;1220;138578;-59
2022/06/24 09:05:50;;;;;;;5.30;2.20;;;;;;;25.00;40.31;98924.71;232655;1223;141095;-59
2022/06/24 09:11:07;;;;;;;1.90;1.50;;;;;;;25.12;40.08;98923.77;232443;1222;139801;-58
2022/06/24 09:16:12;;;;;;;4.80;1.70;;;;;;;25.23;40.03;98913.05;232750;1222;138885;-59
2022/06/24 09:21:28;;;;;;;8.60;2.10;;;;;;;25.34;40.04;98905.15;232516;1222;139138;-58
2022/06/24 09:26:37;;;;;;;8.00;2.50;;;;;;;25.50;39.74;98901.37;232434;1223;138954;-57
2022/06/24 09:31:41;;;;;;;3.70;1.80;;;;;;;25.62;39.55;98905.02;232727;1222;138610;-58
2022/06/24 09:36:47;;;;;;;4.20;1.60;;;;;;;25.71;39.08;98894.23;232336;1223;139137;-56
2022/06/24 09:41:55;;;;;;;10.20;1.80;;;;;;;25.79;38.85;98892.42;232725;1223;138990;-57
2022/06/24 09:47:04;;;;;;;6.60;2.40;;;;;;;25.94;38.99;98889.08;232399;1224;138917;-56
2022/06/24 09:52:09;;;;;;;2.70;1.70;;;;;;;26.04;38.75;98877.71;232646;1223;138587;-58
2022/06/24 09:57:13;;;;;;;5.40;1.50;;;;;;;26.24;38.72;98879.41;232610;1223;138995;-55
2022/06/24 10:02:21;;;;;;;7.70;1.80;;;;;;;26.35;38.16;98875.14;232526;1223;138503;-58
2022/06/24 10:07:32;;;;;;;3.80;1.70;;;;;;;26.48;38.12;98864.16;232372;1223;139180;-58
2022/06/24 10:12:41;;;;;;;5.80;2.10;;;;;;;26.63;37.82;98862.91;232371;1224;138792;-57
2022/06/24 10:17:46;;;;;;;5.10;1.40;;;;;;;26.76;37.53;98857.79;232888;1222;138690;-58
2022/06/24 10:22:50;;;;;;;4.60;1.60;;;;;;;26.91;37.31;98852.13;232878;1223;139346;-55
2022/06/24 10:27:59;;;;;;;4.10;1.50;;;;;;;27.06;36.76;98853.38;232827;1223;138727;-58
2022/06/24 10:33:20;;;;;;;2.70;1.30;;;;;;;27.25;36.48;98851.24;232605;1223;138975;-58
2022/06/24 10:38:24;;;;;;;1.50;1.20;;;;;;;27.46;36.45;98837.74;232474;1224;139084;-55
2022/06/24 10:43:34;;;;;;;3.10;1.30;;;;;;;27.65;35.90;98843.82;232232;1224;138965;-57
2022/06/24 10:48:43;;;;;;;5.10;1.30;;;;;;;27.79;35.54;98844.26;232672;1223;139744;-57
2022/06/24 10:54:01;;;;;;;2.60;1.60;;;;;;;27.91;35.59;98830.16;232436;1224;141556;-58
2022/06/24 10:59:04;;;;;;;7.40;1.40;;;;;;;28.11;35.16;98833.15;232475;1222;139301;-57
2022/06/24 11:04:10;;;;;;;3.60;1.50;;;;;;;28.27;34.65;98830.89;232509;1224;139246;-57
2022/06/24 11:09:16;;;;;;;2.90;1.70;;;;;;;28.35;34.60;98815.34;232535;1223;139094;-55
2022/06/24 11:14:26;;;;;;;3.90;1.60;;;;;;;28.52;34.69;98812.06;232943;1222;138574;-57
2022/06/24 11:19:29;;;;;;;2.70;1.40;;;;;;;28.71;34.56;98805.71;232615;1223;138723;-58
2022/06/24 11:24:36;;;;;;;5.20;1.90;;;;;;;28.84;34.18;98796.83;232401;1223;138720;-58
2022/06/24 11:29:57;;;;;;;4.50;2.00;;;;;;;28.94;34.05;98789.81;232686;1220;138697;-55
2022/06/24 11:35:00;;;;;;;4.20;1.90;;;;;;;29.08;34.23;98790.95;232722;1223;139969;-55
2022/06/24 11:40:03;;;;;;;4.20;1.50;;;;;;;29.19;33.98;98781.92;232446;1225;140238;-54
2022/06/24 11:45:06;;;;;;;3.80;1.90;;;;;;;29.36;33.77;98778.82;232350;1224;139731;-57
2022/06/24 11:50:19;;;;;;;2.60;1.70;;;;;;;29.50;33.77;98769.34;232630;1223;139454;-56
2022/06/24 11:55:33;;;;;;;3.70;1.70;;;;;;;29.65;33.52;98765.81;232615;1223;138989;-56
2022/06/24 12:00:39;;;;;;;4.50;1.80;;;;;;;29.75;33.15;98765.08;232338;1225;138626;-56
2022/06/24 12:05:45;;;;;;;4.30;1.80;;;;;;;29.81;33.06;98765.52;232324;1224;139459;-57
2022/06/24 12:10:53;;;;;;;3.40;1.70;;;;;;;29.96;33.28;98752.84;232658;1222;139806;-57
2022/06/24 12:15:58;;;;;;;3.00;1.70;;;;;;;30.07;33.03;98751.08;232737;1222;139176;-56
2022/06/24 12:21:07;;;;;;;4.40;1.60;;;;;;;30.01;32.40;98747.38;231940;1223;139607;-56
2022/06/24 12:26:17;;;;;;;2.90;1.60;;;;;;;30.05;32.29;98744.38;233010;1222;138907;-54
2022/06/24 12:31:20;;;;;;;4.20;1.70;;;;;;;30.21;32.27;98736.38;232741;1223;138777;-53
2022/06/24 12:36:33;;;;;;;3.80;2.00;;;;;;;30.36;32.20;98728.36;232417;1224;139261;-56
2022/06/24 12:41:49;;;;;;;8.00;1.90;;;;;;;30.54;31.82;98720.45;232493;1223;138743;-57
2022/06/24 12:52:14;;;;;;;2.40;1.40;;;;;;;30.62;31.48;98705.61;232558;1224;138796;-56
2022/06/24 12:57:20;;;;;;;3.40;1.50;;;;;;;30.79;31.62;98685.28;232294;1224;138960;-57
2022/06/24 13:02:24;;;;;;;3.80;1.40;;;;;;;30.93;31.25;98694.66;232404;1222;138686;-57
2022/06/24 13:07:27;;;;;;;3.30;1.30;;;;;;;31.02;31.01;98688.40;232765;1222;142491;-58
2022/06/24 13:12:31;;;;;;;3.40;1.40;;;;;;;31.14;30.86;98687.44;232545;1223;139256;-55
2022/06/24 13:17:35;;;;;;;2.50;1.50;;;;;;;31.29;30.80;98683.46;232431;1223;138914;-57
2022/06/24 13:22:38;;;;;;;3.90;1.60;;;;;;;31.49;30.96;98677.64;232306;1224;138989;-57
2022/06/24 13:27:42;;;;;;;5.00;1.80;;;;;;;31.58;30.69;98674.38;232528;1224;139228;-57
2022/06/24 13:32:45;;;;;;;3.80;1.60;;;;;;;31.72;30.64;98675.10;232607;1223;139204;-56
2022/06/24 13:37:48;;;;;;;3.00;1.50;;;;;;;31.91;30.51;98679.50;232497;1223;138715;-58
2022/06/24 13:42:51;;;;;;;3.70;1.50;;;;;;;31.77;29.80;98676.90;232379;1223;138749;-59
2022/06/24 13:47:54;;;;;;;23.80;20.10;;;;;;;31.70;29.76;98674.92;232557;1223;139194;-58
2022/06/24 13:52:57;;;;;;;7.10;2.10;;;;;;;31.82;29.90;98680.15;232589;1222;140008;-59
2022/06/24 13:58:01;;;;;;;4.20;1.40;;;;;;;31.78;29.78;98674.55;232773;1223;139470;-58
2022/06/24 14:03:04;;;;;;;2.00;1.40;;;;;;;31.77;29.65;98664.19;232296;1223;138522;-58
2022/06/24 14:08:07;;;;;;;9.30;1.60;;;;;;;31.79;29.38;98661.71;232345;1224;138884;-57
2022/06/24 14:13:10;;;;;;;5.30;1.30;;;;;;;31.81;29.52;98643.74;232351;1224;139768;-59
2022/06/24 14:18:14;;;;;;;6.90;1.50;;;;;;;31.90;29.44;98648.34;232424;1223;139086;-54
2022/06/24 14:28:38;;;;;;;4.10;2.30;;;;;;;31.57;29.34;98636.82;232576;1223;140314;-57
2022/06/24 14:33:41;;;;;;;2.80;1.70;;;;;;;31.45;29.39;98633.33;232553;1223;138767;-58
2022/06/24 14:44:09;;;;;;;4.10;1.90;;;;;;;31.09;29.24;98609.83;232796;1222;139731;-57
2022/06/24 14:49:12;;;;;;;3.20;1.60;;;;;;;30.89;29.21;98605.52;232685;1222;138648;-57
2022/06/24 14:54:31;;;;;;;17.60;14.30;;;;;;;30.64;29.39;98601.60;232513;1223;140586;-58
2022/06/24 14:59:34;;;;;;;2.90;1.90;;;;;;;30.43;29.50;98605.85;232501;1224;140508;-59
2022/06/24 15:04:37;;;;;;;3.30;1.50;;;;;;;30.21;29.64;98596.46;232683;1223;139611;-57
2022/06/24 15:09:40;;;;;;;3.60;2.00;;;;;;;30.05;29.93;98594.69;232783;1224;139584;-56
2022/06/24 15:14:45;;;;;;;4.00;1.70;;;;;;;29.85;29.97;98580.19;232359;1224;138796;-55
2022/06/24 15:19:48;;;;;;;5.70;1.90;;;;;;;29.65;29.96;98586.50;232432;1223;138664;-57
2022/06/24 15:24:52;;;;;;;14.40;12.90;;;;;;;29.48;30.05;98574.20;232654;1223;138826;-57
2022/06/24 15:29:56;;;;;;;4.70;1.70;;;;;;;29.35;30.25;98574.50;232606;1224;139103;-59
2022/06/24 15:35:01;;;;;;;5.00;1.70;;;;;;;29.26;30.52;98568.20;232379;1223;139206;-58
2022/06/24 15:40:06;;;;;;;5.10;1.40;;;;;;;29.18;30.66;98567.52;232445;1224;138834;-58
2022/06/24 15:45:09;;;;;;;6.00;1.70;;;;;;;29.09;30.69;98559.42;232237;1223;139198;-56
2022/06/24 15:50:12;;;;;;;5.00;1.80;;;;;;;29.01;30.97;98553.72;232283;1224;139097;-55
2022/06/24 15:55:16;;;;;;;3.60;1.60;;;;;;;28.91;31.15;98556.19;232427;1223;139132;-58
2022/06/24 16:00:19;;;;;;;5.80;4.00;;;;;;;28.81;31.31;98547.02;232739;1223;139273;-56
2022/06/24 16:05:21;;;;;;;3.30;1.80;;;;;;;28.76;31.40;98542.05;232711;1222;138708;-58
2022/06/24 16:10:25;;;;;;;5.00;4.10;;;;;;;28.69;31.47;98542.40;232702;1223;138805;-56
2022/06/24 16:15:28;;;;;;;5.60;1.70;;;;;;;28.65;31.51;98535.91;232644;1223;139033;-55
2022/06/24 16:20:32;;;;;;;;;;;;;;;28.58;31.42;98524.56;232638;1224;139093;-58
2022/06/24 16:30:57;;;;;;;17.00;12.90;;;;;;;28.46;31.56;98518.42;232525;1223;138706;-54
2022/06/24 16:36:00;;;;;;;5.00;1.80;;;;;;;28.43;31.63;98510.10;232339;1224;140372;-56
2022/06/24 16:41:03;;;;;;;5.40;1.30;;;;;;;28.32;31.69;98509.40;232390;1223;139570;-58
2022/06/24 16:46:08;;;;;;;4.30;1.70;;;;;;;28.23;31.76;98504.76;232661;1224;139169;-58
2022/06/24 16:51:14;;;;;;;1.80;1.30;;;;;;;28.19;32.11;98506.31;232549;1224;139307;-56
2022/06/24 16:56:18;;;;;;;7.00;3.80;;;;;;;28.14;32.29;98501.25;232351;1224;139105;-57
2022/06/24 17:01:21;;;;;;;3.40;1.90;;;;;;;28.07;32.46;98494.31;232572;1223;138574;-56
2022/06/24 17:06:24;;;;;;;3.80;1.70;;;;;;;28.01;32.57;98502.98;232688;1223;138725;-58
2022/06/24 17:11:27;;;;;;;6.40;1.60;;;;;;;27.97;32.75;98508.73;232810;1222;139098;-57
2022/06/24 17:16:30;;;;;;;4.10;1.20;;;;;;;27.94;32.87;98505.93;232640;1223;138813;-57
2022/06/24 17:21:33;;;;;;;1.60;1.50;;;;;;;27.86;32.90;98507.49;232181;1224;138998;-58
2022/06/24 17:26:36;;;;;;;4.70;1.70;;;;;;;27.84;33.22;98506.80;232676;1224;138991;-56
2022/06/24 17:31:40;;;;;;;3.70;1.60;;;;;;;27.81;33.28;98513.19;232714;1222;139028;-54
2022/06/24 17:36:43;;;;;;;3.20;1.40;;;;;;;27.74;33.46;98515.84;232675;1223;138955;-55
2022/06/24 17:41:46;;;;;;;6.20;2.10;;;;;;;27.73;33.52;98522.60;232694;1223;140125;-57
2022/06/24 17:46:50;;;;;;;4.10;1.50;;;;;;;27.68;33.56;98525.23;232624;1223;139477;-56
2022/06/24 17:51:54;;;;;;;2.20;1.50;;;;;;;27.59;33.71;98534.02;232720;1223;139008;-58
2022/06/24 17:56:57;;;;;;;8.30;1.60;;;;;;;27.51;34.02;98543.55;232038;1223;139018;-57
2022/06/24 18:02:00;;;;;;;5.60;1.50;;;;;;;27.46;33.90;98543.79;232315;1224;141369;-55
2022/06/24 18:07:04;;;;;;;3.90;2.10;;;;;;;27.39;34.38;98547.18;232715;1224;138531;-56
2022/06/24 18:12:07;;;;;;;6.50;1.90;;;;;;;27.32;34.54;98543.41;232679;1222;139455;-55
2022/06/24 18:17:10;;;;;;;2.30;1.80;;;;;;;27.27;34.63;98549.48;232582;1223;139042;-55
2022/06/24 18:22:13;;;;;;;3.20;2.00;;;;;;;27.17;34.73;98542.77;232834;1223;138607;-56
2022/06/24 18:27:16;;;;;;;3.30;2.10;;;;;;;27.14;34.84;98542.74;232571;1222;138827;-55
2022/06/24 18:32:19;;;;;;;6.50;1.90;;;;;;;27.09;34.87;98548.11;232637;1222;138637;-56
2022/06/24 18:37:22;;;;;;;4.60;2.20;;;;;;;26.98;35.03;98542.08;232654;1223;139754;-57
2022/06/24 18:42:25;;;;;;;4.20;1.90;;;;;;;26.89;35.38;98542.55;232681;1223;139076;-58
2022/06/24 18:47:30;;;;;;;3.90;2.00;;;;;;;26.76;35.48;98553.16;232572;1223;138412;-56
2022/06/24 18:52:33;;;;;;;;;;;;;;;26.62;35.71;98549.16;232782;1223;139252;-57
2022/06/24 18:57:36;;;;;;;5.00;2.60;;;;;;;26.48;35.87;98550.13;232508;1223;125054;-57
2022/06/24 19:02:40;;;;;;;3.90;2.00;;;;;;;26.37;36.14;98544.89;232625;1223;138767;-55
2022/06/24 19:07:43;;;;;;;4.10;1.80;;;;;;;26.33;36.48;98551.05;232626;1223;140627;-57
2022/06/24 19:12:46;;;;;;;6.80;1.90;;;;;;;26.29;36.66;98550.60;232682;1223;139175;-56
2022/06/24 19:17:49;;;;;;;42.40;36.00;;;;;;;26.18;36.93;98554.10;232609;1221;138787;-55
2022/06/24 19:22:55;;;;;;;101.00;87.70;;;;;;;26.09;36.78;98551.03;232602;1223;139933;-57
2022/06/24 19:27:58;;;;;;;8.70;6.60;;;;;;;26.09;37.18;98557.23;232701;1223;139717;-58
2022/06/24 19:33:02;;;;;;;5.70;3.30;;;;;;;26.03;37.26;98555.30;232538;1221;138537;-55
2022/06/24 19:38:07;;;;;;;45.60;40.70;;;;;;;26.00;37.47;98558.14;232547;1223;138912;-57
2022/06/24 19:43:10;;;;;;;;;;;;;;;25.97;37.66;98560.61;232550;1223;139281;-54
2022/06/24 19:48:13;;;;;;;41.30;37.10;;;;;;;25.89;37.62;98555.84;232571;1223;125931;-59
2022/06/24 19:53:16;;;;;;;11.70;8.90;;;;;;;25.80;37.79;98555.09;232657;1223;140271;-59
2022/06/24 19:58:19;;;;;;;4.50;3.00;;;;;;;25.74;37.91;98560.42;232593;1223;139053;-57
2022/06/24 20:08:44;;;;;;;3.10;2.30;;;;;;;25.58;38.15;98550.63;232706;1221;138540;-55
2022/06/24 20:13:47;;;;;;;13.50;9.10;;;;;;;25.50;38.16;98547.09;232759;1223;139167;-57
2022/06/24 20:18:51;;;;;;;7.90;3.00;;;;;;;25.40;38.43;98551.30;232610;1222;138834;-55
2022/06/24 20:23:57;;;;;;;3.10;2.30;;;;;;;25.31;38.56;98545.65;232705;1223;138519;-57
2022/06/24 20:29:00;;;;;;;5.60;2.60;;;;;;;25.29;38.65;98547.39;232884;1222;139509;-53
2022/06/24 20:34:07;;;;;;;3.90;2.60;;;;;;;25.17;38.88;98545.91;232818;1222;138735;-55
2022/06/24 20:39:12;;;;;;;5.70;2.60;;;;;;;25.10;39.02;98546.69;232744;1223;140242;-54
2022/06/24 20:44:16;;;;;;;4.30;2.70;;;;;;;25.02;39.19;98545.71;232425;1223;141254;-57
2022/06/24 20:49:19;;;;;;;4.40;2.50;;;;;;;24.91;39.41;98549.52;232572;1222;141227;-52
2022/06/24 20:54:23;;;;;;;5.60;2.70;;;;;;;24.83;39.47;98548.20;232702;1223;139162;-56
2022/06/24 20:59:26;;;;;;;5.30;2.70;;;;;;;24.75;39.64;98550.83;232754;1223;138359;-57
2022/06/24 21:04:29;;;;;;;5.00;2.50;;;;;;;24.69;39.85;98554.34;232911;1222;138664;-61
2022/06/24 21:09:32;;;;;;;6.70;2.60;;;;;;;24.63;40.06;98558.66;232632;1223;138440;-62
2022/06/24 21:14:35;;;;;;;6.80;2.70;;;;;;;24.56;40.16;98562.74;232813;1222;138503;-59
2022/06/24 21:19:38;;;;;;;5.10;2.70;;;;;;;24.50;40.25;98566.16;232494;1223;138574;-60
2022/06/24 21:24:41;;;;;;;4.40;2.80;;;;;;;24.40;40.39;98561.75;232194;1223;138835;-59
2022/06/24 21:29:44;;;;;;;6.80;3.20;;;;;;;24.29;40.60;98566.90;232288;1222;138646;-62
2022/06/24 21:34:48;;;;;;;6.60;3.10;;;;;;;24.16;40.73;98559.66;232567;1223;140125;-65
2022/06/24 21:39:51;;;;;;;4.60;2.60;;;;;;;24.12;40.90;98559.95;232603;1223;140182;-64
2022/06/24 21:44:55;;;;;;;4.10;2.80;;;;;;;24.05;41.08;98560.72;232418;1223;139034;-64
2022/06/24 21:49:59;;;;;;;4.10;2.90;;;;;;;24.02;41.37;98570.11;232521;1223;139211;-57
2022/06/24 21:55:02;;;;;;;4.20;2.40;;;;;;;23.96;41.38;98571.50;232560;1223;138727;-59
2022/06/24 22:00:09;;;;;;;7.60;3.10;;;;;;;23.88;41.45;98577.52;232275;1223;139405;-59
2022/06/24 22:05:13;;;;;;;9.20;3.10;;;;;;;23.83;41.74;98584.10;232388;1223;139049;-57
2022/06/24 22:10:16;;;;;;;5.90;2.80;;;;;;;23.78;41.80;98586.60;232560;1224;138982;-58
2022/06/24 22:15:19;;;;;;;5.40;3.00;;;;;;;23.70;41.97;98581.22;232490;1223;139563;-59
2022/06/24 22:20:22;;;;;;;4.70;3.20;;;;;;;23.59;42.17;98585.08;232378;1223;138838;-58
2022/06/24 22:25:26;;;;;;;7.20;4.80;;;;;;;23.50;42.27;98582.20;232063;1223;138613;-59
2022/06/24 22:30:29;;;;;;;3.60;3.10;;;;;;;23.43;42.48;98590.52;232359;1223;139501;-58
2022/06/24 22:35:32;;;;;;;5.90;3.10;;;;;;;23.35;42.68;98587.95;232398;1223;140618;-58
2022/06/24 22:40:36;;;;;;;5.70;3.30;;;;;;;23.31;42.78;98588.42;232527;1223;139558;-59
2022/06/24 22:45:39;;;;;;;6.70;3.50;;;;;;;23.27;42.93;98585.52;232948;1223;138714;-59
2022/06/24 22:50:42;;;;;;;6.30;3.00;;;;;;;23.23;43.04;98579.75;232718;1222;139022;-57
2022/06/24 22:55:45;;;;;;;4.50;2.80;;;;;;;23.17;43.17;98580.92;232476;1223;138941;-56
2022/06/24 23:00:48;;;;;;;8.10;3.30;;;;;;;23.13;43.33;98581.79;232429;1224;140066;-58
2022/06/24 23:05:51;;;;;;;5.30;3.20;;;;;;;23.08;43.46;98582.42;232310;1223;139281;-58
2022/06/24 23:10:54;;;;;;;4.80;3.00;;;;;;;23.01;43.55;98575.30;232597;1223;138862;-59
2022/06/24 23:15:57;;;;;;;5.60;3.10;;;;;;;22.97;43.76;98573.27;232804;1223;139123;-59
2022/06/24 23:21:00;;;;;;;5.40;3.00;;;;;;;22.91;43.85;98568.43;232484;1223;139012;-59
2022/06/24 23:26:03;;;;;;;5.30;3.40;;;;;;;22.84;44.04;98567.67;232484;1224;139064;-57
2022/06/24 23:31:06;;;;;;;4.30;3.00;;;;;;;22.83;44.07;98571.73;232409;1223;139102;-56
2022/06/24 23:36:09;;;;;;;5.40;3.10;;;;;;;22.75;44.13;98567.73;232344;1224;139305;-64
2022/06/24 23:41:12;;;;;;;4.30;3.30;;;;;;;22.71;44.25;98572.26;232492;1223;139145;-59
2022/06/24 23:46:15;;;;;;;3.90;3.20;;;;;;;22.67;44.33;98577.73;232894;1223;140074;-57
2022/06/24 23:51:30;;;;;;;6.20;3.20;;;;;;;22.61;44.49;98577.19;232868;1222;139852;-63
2022/06/24 23:56:34;;;;;;;4.50;2.90;;;;;;;22.57;44.71;98577.03;232415;1222;138919;-61
